createdAt,value
2023-02-22T00:01:34.193Z,99059.33
2023-02-22T00:04:05.975Z,99061.25
2023-02-22T00:06:35.147Z,99059.36
2023-02-22T00:09:04.633Z,99055.16
2023-02-22T00:11:36.055Z,99056.35
2023-02-22T00:14:04.845Z,99058.27
2023-02-22T00:16:33.961Z,99055.65
2023-02-22T00:19:02.989Z,99061.68
2023-02-22T00:21:32.531Z,99055.00
2023-02-22T00:24:17.534Z,99055.52
2023-02-22T00:26:47.777Z,99051.73
2023-02-22T00:29:17.065Z,99053.27
2023-02-22T00:31:46.480Z,99050.91
2023-02-22T00:34:17.032Z,99046.17
2023-02-22T00:36:51.371Z,99041.64
2023-02-22T00:39:23.383Z,99038.41
2023-02-22T00:41:53.393Z,99041.70
2023-02-22T00:44:23.529Z,99040.80
2023-02-22T00:46:53.458Z,99038.60
2023-02-22T00:49:22.678Z,99037.82
2023-02-22T00:51:51.622Z,99033.03
2023-02-22T00:54:21.322Z,99030.16
2023-02-22T00:56:50.952Z,99027.84
2023-02-22T00:59:19.990Z,99027.18
2023-02-22T01:01:49.506Z,99026.00
2023-02-22T01:04:19.110Z,99023.84
2023-02-22T01:06:48.481Z,99026.07
2023-02-22T01:09:17.482Z,99021.41
2023-02-22T01:11:46.590Z,99024.62
2023-02-22T01:14:15.990Z,99026.73
2023-02-22T01:16:45.417Z,99024.29
2023-02-22T01:19:14.464Z,99022.59
2023-02-22T01:21:43.842Z,99022.44
2023-02-22T01:24:16.626Z,99024.73
2023-02-22T01:26:52.053Z,99023.25
2023-02-22T01:29:21.876Z,99024.12
2023-02-22T01:31:57.062Z,99023.61
2023-02-22T01:34:26.434Z,99016.79
2023-02-22T01:36:55.329Z,99018.61
2023-02-22T01:39:24.343Z,99016.25
2023-02-22T01:41:55.981Z,99014.17
2023-02-22T01:44:37.022Z,99006.85
2023-02-22T01:47:09.342Z,99010.30
2023-02-22T01:49:52.408Z,99008.37
2023-02-22T01:52:23.557Z,99005.83
2023-02-22T01:54:59.435Z,99005.97
2023-02-22T01:57:38.307Z,98999.21
2023-02-22T02:00:15.431Z,98995.25
2023-02-22T02:02:49.853Z,98993.70
2023-02-22T02:05:19.637Z,98994.90
2023-02-22T02:07:49.883Z,98988.59
2023-02-22T02:10:18.896Z,98989.21
2023-02-22T02:12:51.635Z,98987.95
2023-02-22T02:15:23.592Z,98981.92
2023-02-22T02:17:55.330Z,98980.31
2023-02-22T02:20:42.617Z,98981.96
2023-02-22T02:23:23.558Z,98974.88
2023-02-22T02:26:04.913Z,98975.90
2023-02-22T02:28:56.973Z,98978.56
2023-02-22T02:31:58.476Z,98980.34
2023-02-22T02:34:33.356Z,98977.54
2023-02-22T02:37:05.347Z,98976.77
2023-02-22T02:39:42.448Z,98974.74
2023-02-22T02:42:17.247Z,98972.19
2023-02-22T02:45:18.160Z,98970.84
2023-02-22T02:47:52.878Z,98965.13
2023-02-22T02:50:37.534Z,98968.08
2023-02-22T02:53:09.995Z,98968.84
2023-02-22T02:55:38.968Z,98964.42
2023-02-22T02:58:08.734Z,98964.20
2023-02-22T03:00:41.640Z,98965.48
2023-02-22T03:03:39.580Z,98966.89
2023-02-22T03:06:08.523Z,98965.86
2023-02-22T03:09:17.969Z,98963.48
2023-02-22T03:12:24.020Z,98960.38
2023-02-22T03:15:13.906Z,98952.98
2023-02-22T03:17:57.234Z,98955.55
2023-02-22T03:20:32.155Z,98955.11
2023-02-22T03:23:25.315Z,98954.13
2023-02-22T03:26:25.468Z,98952.41
2023-02-22T03:28:56.680Z,98956.44
2023-02-22T03:31:30.061Z,98955.89
2023-02-22T03:34:05.910Z,98957.08
2023-02-22T03:36:39.710Z,98957.95
2023-02-22T03:39:16.628Z,98958.19
2023-02-22T03:41:51.843Z,98958.34
2023-02-22T03:44:26.939Z,98963.88
2023-02-22T03:46:58.872Z,98962.88
2023-02-22T03:49:42.549Z,98965.13
2023-02-22T03:52:13.544Z,98962.23
2023-02-22T03:54:42.352Z,98960.87
2023-02-22T03:57:22.728Z,98962.65
2023-02-22T03:59:52.876Z,98960.37
2023-02-22T04:02:24.171Z,98960.59
2023-02-22T04:04:53.135Z,98963.43
2023-02-22T04:07:22.499Z,98968.16
2023-02-22T04:09:51.657Z,98971.33
2023-02-22T04:12:21.337Z,98969.08
2023-02-22T04:14:50.286Z,98966.59
2023-02-22T04:17:19.355Z,98965.46
2023-02-22T04:19:48.600Z,98966.64
2023-02-22T04:22:18.347Z,98967.45
2023-02-22T04:24:46.974Z,98964.35
2023-02-22T04:27:16.619Z,98965.56
2023-02-22T04:29:45.232Z,98968.55
2023-02-22T04:32:14.296Z,98968.75
2023-02-22T04:34:43.105Z,98970.17
2023-02-22T04:37:12.918Z,98972.20
2023-02-22T04:39:42.096Z,98969.77
2023-02-22T04:42:11.584Z,98972.55
2023-02-22T04:44:41.022Z,98972.75
2023-02-22T04:47:09.860Z,98969.77
2023-02-22T04:49:39.257Z,98965.64
2023-02-22T04:52:08.538Z,98965.32
2023-02-22T04:54:37.483Z,98966.91
2023-02-22T04:57:06.666Z,98966.69
2023-02-22T04:59:35.401Z,98967.08
2023-02-22T05:02:04.580Z,98966.08
2023-02-22T05:04:33.265Z,98965.15
2023-02-22T05:07:03.303Z,98962.67
2023-02-22T05:09:32.122Z,98967.22
2023-02-22T05:12:01.624Z,98965.23
2023-02-22T05:14:30.984Z,98965.05
2023-02-22T05:17:00.133Z,98967.47
2023-02-22T05:19:29.529Z,98967.70
2023-02-22T05:21:58.728Z,98966.86
2023-02-22T05:24:27.292Z,98968.41
2023-02-22T05:26:56.385Z,98966.40
2023-02-22T05:29:25.290Z,98963.55
2023-02-22T05:31:54.160Z,98963.52
2023-02-22T05:34:23.141Z,98961.56
2023-02-22T05:36:52.439Z,98963.39
2023-02-22T05:39:21.412Z,98960.58
2023-02-22T05:41:50.842Z,98962.31
2023-02-22T05:44:19.887Z,98961.64
2023-02-22T05:46:49.102Z,98961.48
2023-02-22T05:49:17.921Z,98962.23
2023-02-22T05:51:46.946Z,98965.46
2023-02-22T05:54:15.942Z,98968.06
2023-02-22T05:56:44.988Z,98969.34
2023-02-22T05:59:13.936Z,98969.30
2023-02-22T06:01:42.853Z,98965.91
2023-02-22T06:04:12.184Z,98967.90
2023-02-22T06:06:41.648Z,98971.66
2023-02-22T06:09:10.653Z,98973.50
2023-02-22T06:11:39.857Z,98973.17
2023-02-22T06:14:08.747Z,98977.76
2023-02-22T06:16:37.735Z,98978.77
2023-02-22T06:19:07.540Z,98982.42
2023-02-22T06:21:36.645Z,98984.30
2023-02-22T06:24:06.457Z,98983.95
2023-02-22T06:26:36.724Z,98984.63
2023-02-22T06:29:06.486Z,98990.99
2023-02-22T06:31:37.171Z,98992.48
2023-02-22T06:34:06.414Z,98994.52
2023-02-22T06:36:35.660Z,98995.89
2023-02-22T06:39:04.820Z,98992.61
2023-02-22T06:41:38.457Z,98992.52
2023-02-22T06:44:07.313Z,98992.94
2023-02-22T06:46:37.648Z,98995.72
2023-02-22T06:49:07.263Z,98997.11
2023-02-22T06:51:38.198Z,99003.66
2023-02-22T06:54:07.479Z,98999.55
2023-02-22T06:56:38.069Z,99001.90
2023-02-22T06:59:07.410Z,99000.38
2023-02-22T07:01:36.695Z,99009.46
2023-02-22T07:04:05.764Z,99005.61
2023-02-22T07:06:35.028Z,99003.52
2023-02-22T07:09:04.869Z,99005.39
2023-02-22T07:11:34.619Z,99007.13
2023-02-22T07:14:04.146Z,99007.20
2023-02-22T07:16:34.314Z,99011.13
2023-02-22T07:19:04.442Z,99011.59
2023-02-22T07:21:34.170Z,99011.64
2023-02-22T07:24:05.179Z,99012.96
2023-02-22T07:26:43.192Z,99012.82
2023-02-22T07:29:12.167Z,99016.96
2023-02-22T07:31:41.556Z,99019.09
2023-02-22T07:34:10.344Z,99019.61
2023-02-22T07:36:39.402Z,99023.30
2023-02-22T07:39:09.226Z,99023.88
2023-02-22T07:41:38.378Z,99018.30
2023-02-22T07:44:07.561Z,99016.27
2023-02-22T07:46:36.565Z,99015.55
2023-02-22T07:49:06.172Z,99015.05
2023-02-22T07:51:35.463Z,99014.25
2023-02-22T07:54:04.424Z,99015.33
2023-02-22T07:56:33.950Z,99013.28
2023-02-22T07:59:03.195Z,99012.52
2023-02-22T08:01:32.388Z,99009.59
2023-02-22T08:04:01.481Z,99008.59
2023-02-22T08:06:30.688Z,99007.67
2023-02-22T08:09:00.145Z,99005.14
2023-02-22T08:11:29.478Z,99001.55
2023-02-22T08:13:58.684Z,99001.76
2023-02-22T08:16:27.630Z,99003.30
2023-02-22T08:18:56.552Z,99000.56
2023-02-22T08:21:25.636Z,98999.88
2023-02-22T08:23:54.852Z,98999.88
2023-02-22T08:26:25.957Z,98998.58
2023-02-22T08:28:55.567Z,98997.47
2023-02-22T08:31:24.736Z,98995.52
2023-02-22T08:33:54.144Z,98990.23
2023-02-22T08:36:26.112Z,98989.13
2023-02-22T08:38:55.391Z,98988.30
2023-02-22T08:41:24.558Z,98987.05
2023-02-22T08:43:54.231Z,98978.19
2023-02-22T08:46:23.497Z,98977.94
2023-02-22T08:48:54.141Z,98970.09
2023-02-22T08:51:23.352Z,98972.03
2023-02-22T08:53:52.471Z,98969.10
2023-02-22T08:56:23.692Z,98963.02
2023-02-22T08:58:52.770Z,98964.27
2023-02-22T09:01:32.653Z,98962.63
2023-02-22T09:04:02.974Z,98961.57
2023-02-22T09:06:31.820Z,98967.67
2023-02-22T09:09:00.780Z,98964.94
2023-02-22T09:11:29.754Z,98963.30
2023-02-22T09:13:59.132Z,98962.77
2023-02-22T09:16:28.298Z,98955.41
2023-02-22T09:18:57.972Z,98954.30
2023-02-22T09:21:27.324Z,98955.38
2023-02-22T09:23:56.067Z,98951.59
2023-02-22T09:26:26.010Z,98951.73
2023-02-22T09:28:55.198Z,98947.00
2023-02-22T09:31:24.766Z,98943.86
2023-02-22T09:33:54.323Z,98943.52
2023-02-22T09:36:26.157Z,98936.50
2023-02-22T09:38:57.157Z,98937.25
2023-02-22T09:41:36.890Z,98934.39
2023-02-22T09:44:28.373Z,98932.46
2023-02-22T09:46:59.155Z,98934.45
2023-02-22T09:49:39.775Z,98933.09
2023-02-22T09:52:22.447Z,98928.62
2023-02-22T09:55:05.263Z,98926.16
2023-02-22T09:57:40.478Z,98923.89
2023-02-22T10:00:20.774Z,98919.47
2023-02-22T10:03:07.975Z,98917.13
2023-02-22T10:05:40.254Z,98914.04
2023-02-22T10:08:15.395Z,98911.73
2023-02-22T10:10:46.895Z,98910.91
2023-02-22T10:13:35.412Z,98909.86
2023-02-22T10:17:06.922Z,98911.23
2023-02-22T10:19:55.943Z,98910.66
2023-02-22T10:22:40.591Z,98905.22
2023-02-22T10:25:20.652Z,98902.91
2023-02-22T10:27:55.296Z,98899.14
2023-02-22T10:30:40.313Z,98899.46
2023-02-22T10:33:12.802Z,98896.42
2023-02-22T10:35:45.360Z,98893.77
2023-02-22T10:38:27.110Z,98894.96
2023-02-22T10:40:56.018Z,98895.27
2023-02-22T10:43:26.361Z,98892.41
2023-02-22T10:46:04.834Z,98888.25
2023-02-22T10:48:39.095Z,98884.17
2023-02-22T10:51:10.190Z,98884.05
2023-02-22T10:53:39.916Z,98885.22
2023-02-22T10:56:14.128Z,98881.98
2023-02-22T10:58:49.088Z,98875.30
2023-02-22T11:01:24.691Z,98875.52
2023-02-22T11:04:00.106Z,98874.02
2023-02-22T11:06:29.982Z,98867.14
2023-02-22T11:09:15.385Z,98863.00
2023-02-22T11:11:47.504Z,98859.20
2023-02-22T11:14:31.627Z,98854.58
2023-02-22T11:17:08.127Z,98849.80
2023-02-22T11:19:39.998Z,98846.17
2023-02-22T11:22:22.013Z,98848.07
2023-02-22T11:24:59.973Z,98843.58
2023-02-22T11:27:29.302Z,98836.76
2023-02-22T11:30:16.934Z,98840.55
2023-02-22T11:32:50.020Z,98844.89
2023-02-22T11:35:29.946Z,98839.95
2023-02-22T11:38:17.762Z,98834.38
2023-02-22T11:41:05.076Z,98832.57
2023-02-22T11:43:34.788Z,98828.11
2023-02-22T11:46:13.310Z,98829.55
2023-02-22T11:48:56.251Z,98826.55
2023-02-22T11:51:39.002Z,98828.90
2023-02-22T11:54:38.861Z,98822.20
2023-02-22T11:57:46.847Z,98825.61
2023-02-22T12:00:44.121Z,98824.98
2023-02-22T12:03:21.726Z,98822.11
2023-02-22T12:06:04.029Z,98820.73
2023-02-22T12:08:54.013Z,98817.73
2023-02-22T12:11:31.542Z,98813.44
2023-02-22T12:14:34.731Z,98810.61
2023-02-22T12:17:32.386Z,98810.40
2023-02-22T12:20:10.530Z,98806.86
2023-02-22T12:22:53.838Z,98802.52
2023-02-22T12:25:32.021Z,98799.77
2023-02-22T12:28:27.100Z,98803.89
2023-02-22T12:31:27.283Z,98800.89
2023-02-22T12:34:10.539Z,98797.48
2023-02-22T12:36:51.087Z,98797.98
2023-02-22T12:39:53.156Z,98795.88
2023-02-22T12:42:48.251Z,98791.45
2023-02-22T12:45:44.158Z,98790.99
2023-02-22T12:48:24.856Z,98792.90
2023-02-22T12:51:01.489Z,98789.73
2023-02-22T12:53:37.367Z,98784.05
2023-02-22T12:56:34.476Z,98781.50
2023-02-22T12:59:25.122Z,98786.52
2023-02-22T13:02:25.577Z,98783.98
2023-02-22T13:04:55.995Z,98782.19
2023-02-22T13:07:56.644Z,98784.20
2023-02-22T13:11:07.863Z,98782.60
2023-02-22T13:14:03.197Z,98785.55
2023-02-22T13:16:46.650Z,98787.10
2023-02-22T13:19:19.329Z,98785.98
2023-02-22T13:22:04.429Z,98782.64
2023-02-22T13:25:09.719Z,98781.70
2023-02-22T13:27:51.493Z,98776.14
2023-02-22T13:30:30.606Z,98777.59
2023-02-22T13:33:25.133Z,98772.39
2023-02-22T13:36:15.061Z,98780.88
2023-02-22T13:39:02.954Z,98778.34
2023-02-22T13:41:49.236Z,98776.60
2023-02-22T13:44:46.746Z,98780.14
2023-02-22T13:47:26.819Z,98780.88
2023-02-22T13:50:27.691Z,98777.46
2023-02-22T13:52:58.814Z,98781.04
2023-02-22T13:55:35.149Z,98775.86
2023-02-22T13:58:13.781Z,98775.67
2023-02-22T14:00:48.959Z,98778.32
2023-02-22T14:03:36.443Z,98780.23
2023-02-22T14:06:25.715Z,98781.83
2023-02-22T14:08:54.703Z,98780.92
2023-02-22T14:11:41.164Z,98774.21
2023-02-22T14:14:12.259Z,98769.31
2023-02-22T14:16:42.162Z,98770.35
2023-02-22T14:19:14.114Z,98770.68
2023-02-22T14:22:02.635Z,98771.81
2023-02-22T14:24:44.940Z,98771.48
2023-02-22T14:27:18.319Z,98770.59
2023-02-22T14:29:57.645Z,98768.13
2023-02-22T14:32:35.905Z,98765.17
2023-02-22T14:35:27.106Z,98770.44
2023-02-22T14:38:01.544Z,98769.86
2023-02-22T14:40:33.844Z,98770.89
2023-02-22T14:43:20.620Z,98769.60
2023-02-22T14:45:57.274Z,98763.11
2023-02-22T14:48:40.529Z,98763.76
2023-02-22T14:51:29.907Z,98763.20
2023-02-22T14:54:21.043Z,98761.91
2023-02-22T14:57:16.270Z,98764.46
2023-02-22T14:59:59.804Z,98762.90
2023-02-22T15:02:41.927Z,98764.73
2023-02-22T15:05:15.304Z,98768.13
2023-02-22T15:08:01.070Z,98762.38
2023-02-22T15:10:46.608Z,98762.54
2023-02-22T15:13:26.454Z,98761.17
2023-02-22T15:16:02.715Z,98758.50
2023-02-22T15:18:46.788Z,98757.20
2023-02-22T15:21:21.314Z,98757.10
2023-02-22T15:23:55.302Z,98758.18
2023-02-22T15:26:36.001Z,98759.98
2023-02-22T15:29:26.418Z,98754.13
2023-02-22T15:31:57.340Z,98750.62
2023-02-22T15:34:34.067Z,98750.52
2023-02-22T15:37:23.549Z,98750.98
2023-02-22T15:39:59.812Z,98746.25
2023-02-22T15:42:30.999Z,98747.23
2023-02-22T15:44:59.974Z,98747.24
2023-02-22T15:47:34.857Z,98748.02
2023-02-22T15:50:34.918Z,98750.30
2023-02-22T15:53:23.867Z,98749.35
2023-02-22T15:56:00.555Z,98746.09
2023-02-22T15:58:30.399Z,98746.68
2023-02-22T16:01:09.437Z,98748.65
2023-02-22T16:03:46.240Z,98745.95
2023-02-22T16:06:29.120Z,98745.05
2023-02-22T16:09:01.800Z,98745.59
2023-02-22T16:11:38.918Z,98745.48
2023-02-22T16:14:25.575Z,98744.65
2023-02-22T16:17:31.459Z,98746.88
2023-02-22T16:20:02.461Z,98741.36
2023-02-22T16:22:34.592Z,98741.00
2023-02-22T16:25:18.943Z,98741.18
2023-02-22T16:28:02.547Z,98739.82
2023-02-22T16:30:35.473Z,98742.21
2023-02-22T16:33:07.506Z,98739.71
2023-02-22T16:35:36.686Z,98740.21
2023-02-22T16:38:17.478Z,98742.12
2023-02-22T16:40:52.765Z,98736.62
2023-02-22T16:43:30.073Z,98740.02
2023-02-22T16:46:01.999Z,98743.80
2023-02-22T16:48:33.823Z,98744.39
2023-02-22T16:51:10.218Z,98744.80
2023-02-22T16:53:39.522Z,98751.33
2023-02-22T16:56:13.020Z,98754.69
2023-02-22T16:58:44.373Z,98751.13
2023-02-22T17:01:15.343Z,98753.36
2023-02-22T17:03:45.672Z,98756.20
2023-02-22T17:06:14.704Z,98754.80
2023-02-22T17:08:44.124Z,98757.70
2023-02-22T17:11:15.585Z,98755.43
2023-02-22T17:13:46.156Z,98763.70
2023-02-22T17:16:16.764Z,98759.90
2023-02-22T17:18:46.803Z,98764.90
2023-02-22T17:21:17.164Z,98766.27
2023-02-22T17:23:47.747Z,98766.93
2023-02-22T17:26:18.081Z,98768.73
2023-02-22T17:28:47.604Z,98769.37
2023-02-22T17:31:22.911Z,98766.57
2023-02-22T17:33:52.244Z,98773.52
2023-02-22T17:36:22.700Z,98773.59
2023-02-22T17:38:51.742Z,98776.45
2023-02-22T17:41:21.067Z,98771.16
2023-02-22T17:43:51.807Z,98769.05
2023-02-22T17:46:21.643Z,98766.56
2023-02-22T17:48:54.743Z,98765.50
2023-02-22T17:51:27.398Z,98764.86
2023-02-22T17:53:56.506Z,98763.69
2023-02-22T17:56:25.901Z,98764.45
2023-02-22T17:58:55.697Z,98759.48
2023-02-22T18:01:31.216Z,98756.80
2023-02-22T18:04:04.164Z,98754.68
2023-02-22T18:06:34.247Z,98754.75
2023-02-22T18:09:11.003Z,98756.88
2023-02-22T18:11:42.034Z,98759.95
2023-02-22T18:14:13.162Z,98761.45
2023-02-22T18:16:43.403Z,98759.64
2023-02-22T18:19:13.014Z,98759.09
2023-02-22T18:21:42.704Z,98758.73
2023-02-22T18:24:12.709Z,98761.75
2023-02-22T18:26:41.899Z,98762.07
2023-02-22T18:29:12.977Z,98758.90
2023-02-22T18:31:41.718Z,98758.86
2023-02-22T18:34:13.405Z,98762.05
2023-02-22T18:36:42.353Z,98759.00
2023-02-22T18:39:12.459Z,98760.67
2023-02-22T18:41:42.104Z,98758.29
2023-02-22T18:44:11.676Z,98754.15
2023-02-22T18:46:41.757Z,98755.07
2023-02-22T18:49:15.244Z,98757.98
2023-02-22T18:51:46.547Z,98762.25
2023-02-22T18:54:15.876Z,98761.41
2023-02-22T18:56:45.400Z,98760.85
2023-02-22T18:59:15.076Z,98759.43
2023-02-22T19:01:49.399Z,98762.34
2023-02-22T19:04:20.568Z,98761.02
2023-02-22T19:06:50.866Z,98763.54
2023-02-22T19:09:20.645Z,98760.79
2023-02-22T19:11:51.681Z,98762.17
2023-02-22T19:14:21.579Z,98765.21
2023-02-22T19:16:51.489Z,98763.05
2023-02-22T19:19:21.369Z,98762.99
2023-02-22T19:21:52.084Z,98768.67
2023-02-22T19:24:21.208Z,98764.10
2023-02-22T19:26:58.129Z,98763.34
2023-02-22T19:29:27.028Z,98761.95
2023-02-22T19:31:56.201Z,98760.68
2023-02-22T19:34:26.734Z,98764.95
2023-02-22T19:36:56.481Z,98760.60
2023-02-22T19:39:27.446Z,98759.03
2023-02-22T19:41:58.065Z,98757.36
2023-02-22T19:44:30.263Z,98760.17
2023-02-22T19:47:00.860Z,98755.64
2023-02-22T19:49:30.745Z,98753.48
2023-02-22T19:52:00.378Z,98750.73
2023-02-22T19:54:31.299Z,98749.91
2023-02-22T19:57:01.151Z,98753.06
2023-02-22T19:59:30.076Z,98758.98
2023-02-22T20:01:59.904Z,98763.40
2023-02-22T20:04:31.776Z,98763.55
2023-02-22T20:07:04.731Z,98760.91
2023-02-22T20:09:40.031Z,98758.87
2023-02-22T20:12:10.671Z,98760.40
2023-02-22T20:14:42.659Z,98757.97
2023-02-22T20:17:13.685Z,98759.41
2023-02-22T20:19:43.890Z,98768.42
2023-02-22T20:22:14.635Z,98772.84
2023-02-22T20:24:44.811Z,98774.62
2023-02-22T20:27:15.311Z,98775.72
2023-02-22T20:29:45.304Z,98779.44
2023-02-22T20:32:17.082Z,98779.66
2023-02-22T20:34:47.898Z,98780.14
2023-02-22T20:37:18.600Z,98788.91
2023-02-22T20:39:49.069Z,98790.59
2023-02-22T20:42:18.638Z,98786.16
2023-02-22T20:44:50.926Z,98794.72
2023-02-22T20:47:21.145Z,98792.41
2023-02-22T20:49:53.958Z,98792.50
2023-02-22T20:52:24.009Z,98793.85
2023-02-22T20:54:53.216Z,98792.48
2023-02-22T20:57:24.040Z,98791.25
2023-02-22T20:59:54.250Z,98792.09
2023-02-22T21:02:25.545Z,98794.02
2023-02-22T21:04:56.405Z,98790.70
2023-02-22T21:07:25.690Z,98786.80
2023-02-22T21:09:57.119Z,98786.59
2023-02-22T21:12:28.165Z,98782.77
2023-02-22T21:14:58.455Z,98784.23
2023-02-22T21:17:29.735Z,98784.63
2023-02-22T21:19:59.475Z,98783.86
2023-02-22T21:22:29.930Z,98784.31
2023-02-22T21:24:59.556Z,98784.77
2023-02-22T21:27:29.041Z,98786.97
2023-02-22T21:29:59.891Z,98789.29
2023-02-22T21:32:29.709Z,98791.68
2023-02-22T21:34:59.701Z,98796.57
2023-02-22T21:37:29.225Z,98798.35
2023-02-22T21:39:59.758Z,98797.70
2023-02-22T21:42:30.597Z,98800.00
2023-02-22T21:45:00.118Z,98793.19
2023-02-22T21:47:32.157Z,98794.95
2023-02-22T21:50:03.665Z,98791.41
2023-02-22T21:52:35.330Z,98792.48
2023-02-22T21:55:05.137Z,98792.14
2023-02-22T21:57:34.866Z,98790.67
2023-02-22T22:00:19.070Z,98794.38
2023-02-22T22:02:49.455Z,98799.80
2023-02-22T22:05:32.571Z,98798.65
2023-02-22T22:08:03.082Z,98797.52
2023-02-22T22:10:33.798Z,98794.27
2023-02-22T22:13:02.996Z,98792.09
2023-02-22T22:15:37.484Z,98794.91
2023-02-22T22:18:08.394Z,98796.41
2023-02-22T22:20:39.522Z,98793.95
2023-02-22T22:23:08.322Z,98794.16
2023-02-22T22:25:39.956Z,98798.98
2023-02-22T22:28:11.735Z,98801.06
2023-02-22T22:30:41.282Z,98801.10
2023-02-22T22:33:11.885Z,98803.38
2023-02-22T22:35:42.640Z,98804.91
2023-02-22T22:38:12.371Z,98800.75
2023-02-22T22:40:42.648Z,98797.48
2023-02-22T22:43:11.527Z,98796.18
2023-02-22T22:45:41.616Z,98793.30
2023-02-22T22:48:15.598Z,98792.16
2023-02-22T22:50:47.077Z,98790.95
2023-02-22T22:53:19.123Z,98793.80
2023-02-22T22:55:48.713Z,98791.08
2023-02-22T22:58:17.612Z,98790.53
2023-02-22T23:00:48.266Z,98790.18
2023-02-22T23:03:18.514Z,98790.54
2023-02-22T23:05:48.912Z,98789.70
2023-02-22T23:08:18.895Z,98792.75
2023-02-22T23:10:48.274Z,98795.40
2023-02-22T23:13:17.471Z,98801.58
2023-02-22T23:15:48.105Z,98798.91
2023-02-22T23:18:20.912Z,98800.08
2023-02-22T23:20:55.609Z,98797.13
2023-02-22T23:23:28.337Z,98795.89
2023-02-22T23:26:18.824Z,98804.25
2023-02-22T23:28:50.201Z,98805.06
2023-02-22T23:31:20.449Z,98803.20
2023-02-22T23:33:51.410Z,98807.73
2023-02-22T23:36:20.613Z,98807.64
2023-02-22T23:38:50.407Z,98802.33
2023-02-22T23:41:19.660Z,98798.34
2023-02-22T23:43:49.010Z,98798.05
2023-02-22T23:46:21.260Z,98783.91
2023-02-22T23:48:52.981Z,98782.67
2023-02-22T23:51:28.066Z,98786.46
2023-02-22T23:53:57.488Z,98781.66
2023-02-22T23:56:29.210Z,98776.71
2023-02-22T23:58:58.343Z,98771.23
